createdAt,value
2022-09-26T00:01:15.647Z,100.00
2022-09-26T00:03:23.046Z,100.00
2022-09-26T00:05:27.821Z,100.00
2022-09-26T00:07:32.588Z,100.00
2022-09-26T00:09:37.373Z,100.00
2022-09-26T00:11:42.560Z,100.00
2022-09-26T00:13:47.122Z,100.00
2022-09-26T00:15:51.998Z,100.00
2022-09-26T00:17:56.754Z,100.00
2022-09-26T00:20:04.462Z,100.00
2022-09-26T00:22:09.272Z,100.00
2022-09-26T00:24:14.437Z,100.00
2022-09-26T00:26:21.093Z,100.00
2022-09-26T00:28:25.979Z,100.00
2022-09-26T00:30:30.824Z,100.00
2022-09-26T00:32:35.602Z,100.00
2022-09-26T00:34:40.674Z,100.00
2022-09-26T00:36:48.102Z,100.00
2022-09-26T00:38:52.919Z,100.00
2022-09-26T00:40:57.832Z,100.00
2022-09-26T00:43:02.654Z,100.00
2022-09-26T00:45:08.667Z,100.00
2022-09-26T00:47:49.342Z,100.00
2022-09-26T00:49:58.406Z,100.00
2022-09-26T00:52:10.302Z,100.00
2022-09-26T00:54:18.343Z,100.00
2022-09-26T00:56:30.319Z,100.00
2022-09-26T00:58:40.777Z,100.00
2022-09-26T01:00:49.742Z,100.00
2022-09-26T01:02:56.046Z,100.00
2022-09-26T01:05:02.204Z,100.00
2022-09-26T01:07:13.616Z,100.00
2022-09-26T01:09:19.180Z,100.00
2022-09-26T01:11:24.918Z,100.00
2022-09-26T01:13:31.522Z,100.00
2022-09-26T01:15:36.488Z,100.00
2022-09-26T01:17:45.874Z,100.00
2022-09-26T01:20:06.276Z,100.00
2022-09-26T01:22:39.654Z,100.00
2022-09-26T01:25:03.586Z,100.00
2022-09-26T01:27:26.549Z,100.00
2022-09-26T01:30:04.076Z,100.00
2022-09-26T01:32:35.099Z,100.00
2022-09-26T01:34:45.214Z,100.00
2022-09-26T01:37:06.053Z,100.00
2022-09-26T01:39:32.166Z,100.00
2022-09-26T01:41:53.889Z,100.00
2022-09-26T01:44:07.207Z,100.00
2022-09-26T01:46:22.624Z,100.00
2022-09-26T01:48:36.599Z,100.00
2022-09-26T01:50:47.133Z,100.00
2022-09-26T01:52:59.827Z,100.00
2022-09-26T01:55:12.885Z,100.00
2022-09-26T01:57:22.869Z,100.00
2022-09-26T01:59:32.029Z,100.00
2022-09-26T02:01:44.381Z,100.00
2022-09-26T02:03:57.036Z,100.00
2022-09-26T02:06:06.061Z,100.00
2022-09-26T02:08:15.097Z,100.00
2022-09-26T02:10:28.500Z,100.00
2022-09-26T02:12:36.915Z,100.00
2022-09-26T02:14:45.341Z,100.00
2022-09-26T02:16:53.324Z,100.00
2022-09-26T02:19:08.559Z,100.00
2022-09-26T02:21:18.893Z,100.00
2022-09-26T02:23:24.257Z,100.00
2022-09-26T02:25:31.693Z,100.00
2022-09-26T02:27:36.699Z,100.00
2022-09-26T02:29:41.526Z,100.00
2022-09-26T02:31:54.009Z,100.00
2022-09-26T02:34:01.755Z,100.00
2022-09-26T02:36:08.463Z,100.00
2022-09-26T02:38:13.541Z,100.00
2022-09-26T02:40:35.437Z,100.00
2022-09-26T02:42:51.947Z,100.00
2022-09-26T02:45:20.638Z,100.00
2022-09-26T02:47:40.716Z,100.00
2022-09-26T02:50:11.060Z,100.00
2022-09-26T02:52:27.261Z,100.00
2022-09-26T02:54:46.535Z,100.00
2022-09-26T02:57:03.525Z,100.00
2022-09-26T02:59:16.779Z,100.00
2022-09-26T03:01:32.811Z,100.00
2022-09-26T03:03:42.876Z,100.00
2022-09-26T03:05:54.437Z,100.00
2022-09-26T03:08:04.142Z,100.00
2022-09-26T03:10:11.858Z,100.00
2022-09-26T03:12:16.939Z,100.00
2022-09-26T03:14:21.742Z,100.00
2022-09-26T03:16:29.432Z,100.00
2022-09-26T03:18:41.413Z,100.00
2022-09-26T03:20:46.888Z,100.00
2022-09-26T03:22:54.103Z,100.00
2022-09-26T03:25:00.693Z,100.00
2022-09-26T03:27:07.352Z,100.00
2022-09-26T03:29:14.315Z,100.00
2022-09-26T03:31:21.923Z,100.00
2022-09-26T03:33:32.444Z,100.00
2022-09-26T03:35:37.306Z,100.00
2022-09-26T03:37:42.178Z,100.00
2022-09-26T03:39:50.001Z,100.00
2022-09-26T03:42:02.771Z,100.00
2022-09-26T03:44:08.838Z,100.00
2022-09-26T03:46:33.999Z,100.00
2022-09-26T03:48:43.335Z,100.00
2022-09-26T03:50:47.873Z,100.00
2022-09-26T03:52:53.453Z,100.00
2022-09-26T03:55:01.091Z,100.00
2022-09-26T03:57:07.192Z,100.00
2022-09-26T03:59:16.903Z,100.00
2022-09-26T04:01:25.053Z,100.00
2022-09-26T04:03:30.252Z,100.00
2022-09-26T04:05:36.133Z,100.00
2022-09-26T04:07:41.012Z,100.00
2022-09-26T04:09:45.950Z,100.00
2022-09-26T04:11:53.693Z,100.00
2022-09-26T04:13:59.559Z,100.00
2022-09-26T04:16:10.530Z,100.00
2022-09-26T04:18:16.591Z,100.00
2022-09-26T04:20:21.503Z,100.00
2022-09-26T04:22:27.346Z,100.00
2022-09-26T04:24:32.904Z,100.00
2022-09-26T04:26:37.984Z,100.00
2022-09-26T04:28:46.717Z,100.00
2022-09-26T04:30:52.128Z,100.00
2022-09-26T04:32:57.897Z,100.00
2022-09-26T04:35:12.049Z,100.00
2022-09-26T04:37:16.598Z,100.00
2022-09-26T04:39:22.343Z,100.00
2022-09-26T04:41:27.667Z,100.00
2022-09-26T04:43:32.549Z,100.00
2022-09-26T04:45:43.925Z,100.00
2022-09-26T04:47:51.824Z,100.00
2022-09-26T04:50:20.265Z,100.00
2022-09-26T04:52:41.632Z,100.00
2022-09-26T04:54:46.394Z,100.00
2022-09-26T04:56:51.356Z,100.00
2022-09-26T04:58:57.806Z,100.00
2022-09-26T05:01:11.165Z,100.00
2022-09-26T05:03:48.661Z,100.00
2022-09-26T05:05:54.419Z,100.00
2022-09-26T05:07:59.540Z,100.00
2022-09-26T05:10:04.621Z,100.00
2022-09-26T05:12:17.321Z,100.00
2022-09-26T05:14:25.570Z,100.00
2022-09-26T05:16:33.892Z,100.00
2022-09-26T05:18:40.471Z,100.00
2022-09-26T05:20:48.424Z,100.00
2022-09-26T05:22:53.260Z,100.00
2022-09-26T05:25:10.530Z,100.00
2022-09-26T05:27:18.713Z,100.00
2022-09-26T05:29:23.588Z,100.00
2022-09-26T05:31:40.147Z,100.00
2022-09-26T05:33:45.538Z,100.00
2022-09-26T05:35:54.197Z,100.00
2022-09-26T05:38:02.102Z,100.00
2022-09-26T05:40:21.448Z,100.00
2022-09-26T05:42:29.577Z,100.00
2022-09-26T05:44:34.657Z,100.00
2022-09-26T05:46:44.219Z,100.00
2022-09-26T05:48:50.567Z,100.00
2022-09-26T05:51:00.109Z,100.00
2022-09-26T05:53:06.049Z,100.00
2022-09-26T05:55:12.095Z,100.00
2022-09-26T05:57:53.362Z,100.00
2022-09-26T06:00:00.976Z,100.00
2022-09-26T06:02:10.704Z,100.00
2022-09-26T06:04:32.703Z,100.00
2022-09-26T06:06:51.374Z,100.00
2022-09-26T06:08:56.193Z,100.00
2022-09-26T06:11:04.992Z,100.00
2022-09-26T06:13:10.472Z,100.00
2022-09-26T06:15:26.688Z,100.00
2022-09-26T06:17:36.482Z,100.00
2022-09-26T06:19:41.308Z,100.00
2022-09-26T06:21:46.275Z,100.00
2022-09-26T06:23:54.609Z,100.00
2022-09-26T06:26:00.939Z,100.00
2022-09-26T06:28:05.724Z,100.00
2022-09-26T06:30:13.321Z,100.00
2022-09-26T06:32:18.811Z,100.00
2022-09-26T06:34:46.520Z,100.00
2022-09-26T06:37:18.692Z,100.00
2022-09-26T06:39:23.555Z,100.00
2022-09-26T06:41:28.602Z,100.00
2022-09-26T06:43:34.140Z,100.00
2022-09-26T06:45:49.166Z,100.00
2022-09-26T06:48:09.177Z,100.00
2022-09-26T06:50:36.780Z,100.00
2022-09-26T06:52:42.446Z,100.00
2022-09-26T06:54:47.420Z,100.00
2022-09-26T06:56:52.249Z,100.00
2022-09-26T06:58:57.550Z,100.00
2022-09-26T07:01:10.209Z,100.00
2022-09-26T07:03:36.060Z,100.00
2022-09-26T07:06:03.609Z,100.00
2022-09-26T07:08:08.526Z,100.00
2022-09-26T07:10:14.750Z,100.00
2022-09-26T07:12:25.926Z,100.00
2022-09-26T07:14:31.098Z,100.00
2022-09-26T07:16:42.731Z,100.00
2022-09-26T07:19:20.701Z,100.00
2022-09-26T07:21:43.297Z,100.00
2022-09-26T07:24:02.880Z,100.00
2022-09-26T07:26:08.059Z,100.00
2022-09-26T07:28:13.199Z,100.00
2022-09-26T07:30:24.365Z,100.00
2022-09-26T07:32:46.321Z,100.00
2022-09-26T07:35:19.185Z,100.00
2022-09-26T07:37:26.885Z,100.00
2022-09-26T07:39:33.679Z,100.00
2022-09-26T07:41:38.942Z,100.00
2022-09-26T07:46:22.033Z,100.00
2022-09-26T07:48:41.688Z,100.00
2022-09-26T07:51:09.132Z,100.00
2022-09-26T07:53:24.329Z,100.00
2022-09-26T07:56:10.582Z,100.00
2022-09-26T07:58:38.568Z,100.00
2022-09-26T08:00:48.162Z,100.00
2022-09-26T08:03:14.086Z,100.00
2022-09-26T08:05:24.637Z,100.00
2022-09-26T08:07:30.519Z,100.00
2022-09-26T08:09:44.389Z,100.00
2022-09-26T08:12:07.592Z,100.00
2022-09-26T08:14:32.684Z,100.00
2022-09-26T08:16:57.991Z,100.00
2022-09-26T08:19:02.858Z,100.00
2022-09-26T08:21:09.052Z,100.00
2022-09-26T08:23:14.305Z,100.00
2022-09-26T08:25:25.668Z,100.00
2022-09-26T08:27:36.510Z,100.00
2022-09-26T08:29:42.276Z,100.00
2022-09-26T08:31:47.810Z,100.00
2022-09-26T08:33:54.058Z,100.00
2022-09-26T08:36:09.137Z,100.00
2022-09-26T08:38:34.315Z,100.00
2022-09-26T08:41:20.082Z,100.00
2022-09-26T08:43:57.794Z,100.00
2022-09-26T08:46:40.710Z,100.00
2022-09-26T08:49:20.827Z,100.00
2022-09-26T08:51:32.896Z,100.00
2022-09-26T08:53:45.227Z,100.00
2022-09-26T08:55:53.777Z,100.00
2022-09-26T08:58:06.860Z,100.00
2022-09-26T09:00:21.771Z,100.00
2022-09-26T09:02:40.731Z,100.00
2022-09-26T09:04:57.580Z,100.00
2022-09-26T09:07:13.206Z,100.00
2022-09-26T09:09:20.107Z,100.00
2022-09-26T09:12:07.098Z,100.00
2022-09-26T09:14:29.659Z,100.00
2022-09-26T09:17:00.549Z,100.00
2022-09-26T09:19:36.531Z,100.00
2022-09-26T09:22:35.181Z,100.00
2022-09-26T09:24:59.710Z,100.00
2022-09-26T09:30:03.220Z,100.00
2022-09-26T09:32:42.058Z,100.00
2022-09-26T09:34:55.448Z,100.00
2022-09-26T09:37:26.688Z,100.00
2022-09-26T09:39:53.056Z,100.00
2022-09-26T09:42:20.224Z,100.00
2022-09-26T09:44:41.943Z,100.00
2022-09-26T09:46:51.904Z,100.00
2022-09-26T09:49:01.957Z,100.00
2022-09-26T09:51:16.438Z,100.00
2022-09-26T09:53:39.582Z,100.00
2022-09-26T09:55:56.726Z,100.00
2022-09-26T09:58:17.161Z,100.00
2022-09-26T10:00:27.729Z,100.00
2022-09-26T10:02:50.471Z,100.00
2022-09-26T10:05:11.036Z,100.00
2022-09-26T10:07:16.346Z,100.00
2022-09-26T10:09:40.126Z,100.00
2022-09-26T10:12:30.623Z,100.00
2022-09-26T10:15:10.574Z,100.00
2022-09-26T10:18:00.816Z,100.00
2022-09-26T10:20:43.278Z,100.00
2022-09-26T10:22:48.874Z,100.00
2022-09-26T10:25:09.214Z,100.00
2022-09-26T10:27:22.597Z,100.00
2022-09-26T10:29:35.255Z,100.00
2022-09-26T10:31:43.325Z,100.00
2022-09-26T10:34:00.356Z,100.00
2022-09-26T10:36:20.010Z,100.00
2022-09-26T10:38:31.968Z,100.00
2022-09-26T10:40:54.918Z,100.00
2022-09-26T10:43:21.558Z,100.00
2022-09-26T10:45:29.574Z,100.00
2022-09-26T10:48:00.338Z,100.00
2022-09-26T10:50:33.963Z,100.00
2022-09-26T10:53:01.381Z,100.00
2022-09-26T10:55:14.289Z,100.00
2022-09-26T10:57:28.345Z,100.00
2022-09-26T10:59:37.003Z,100.00
2022-09-26T11:01:47.176Z,100.00
2022-09-26T11:03:56.227Z,100.00
2022-09-26T11:06:43.995Z,100.00
2022-09-26T11:09:24.014Z,100.00
2022-09-26T11:11:50.767Z,100.00
2022-09-26T11:14:03.626Z,100.00
2022-09-26T11:16:13.510Z,100.00
2022-09-26T11:18:31.069Z,100.00
2022-09-26T11:20:55.448Z,100.00
2022-09-26T11:23:09.580Z,100.00
2022-09-26T11:25:22.677Z,100.00
2022-09-26T11:27:43.381Z,100.00
2022-09-26T11:30:02.210Z,100.00
2022-09-26T11:32:12.421Z,100.00
2022-09-26T11:34:46.137Z,100.00
2022-09-26T11:37:18.489Z,100.00
2022-09-26T11:39:40.817Z,100.00
2022-09-26T11:42:06.078Z,100.00
2022-09-26T11:44:39.625Z,100.00
2022-09-26T11:47:07.551Z,100.00
2022-09-26T11:49:47.778Z,100.00
2022-09-26T11:52:32.299Z,100.00
2022-09-26T11:54:56.170Z,100.00
2022-09-26T11:57:13.478Z,100.00
2022-09-26T11:59:32.477Z,100.00
2022-09-26T12:01:53.171Z,100.00
2022-09-26T12:04:29.662Z,100.00
2022-09-26T12:06:41.613Z,100.00
2022-09-26T12:09:02.171Z,100.00
2022-09-26T12:11:16.648Z,100.00
2022-09-26T12:13:38.223Z,100.00
2022-09-26T12:15:56.151Z,100.00
2022-09-26T12:18:15.527Z,100.00
2022-09-26T12:20:40.465Z,99.93
2022-09-26T12:22:56.708Z,100.00
2022-09-26T12:25:24.829Z,100.00
2022-09-26T12:27:37.844Z,100.00
2022-09-26T12:29:52.883Z,100.00
2022-09-26T12:32:17.616Z,100.00
2022-09-26T12:34:40.349Z,100.00
2022-09-26T12:37:02.393Z,100.00
2022-09-26T12:39:31.130Z,100.00
2022-09-26T12:41:58.022Z,100.00
2022-09-26T12:44:35.766Z,98.94
2022-09-26T12:47:07.007Z,97.28
2022-09-26T12:49:42.508Z,94.05
2022-09-26T12:51:55.227Z,95.04
2022-09-26T12:54:36.733Z,95.97
2022-09-26T12:56:50.722Z,96.98
2022-09-26T12:59:23.526Z,95.74
2022-09-26T13:02:06.610Z,94.23
2022-09-26T13:04:52.528Z,91.35
2022-09-26T13:07:19.251Z,90.01
2022-09-26T13:09:36.777Z,90.16
2022-09-26T13:11:57.906Z,86.40
2022-09-26T13:14:30.572Z,87.95
2022-09-26T13:16:47.405Z,89.32
2022-09-26T13:18:58.900Z,88.03
2022-09-26T13:21:08.948Z,89.45
2022-09-26T13:23:20.895Z,88.13
2022-09-26T13:25:35.682Z,89.33
2022-09-26T13:27:47.122Z,91.98
2022-09-26T13:30:08.285Z,92.01
2022-09-26T13:32:23.044Z,90.39
2022-09-26T13:34:39.084Z,92.44
2022-09-26T13:36:55.543Z,91.05
2022-09-26T13:39:06.347Z,93.37
2022-09-26T13:41:29.017Z,94.25
2022-09-26T13:43:52.031Z,93.68
2022-09-26T13:46:03.951Z,93.38
2022-09-26T13:48:16.853Z,92.93
2022-09-26T13:50:28.836Z,91.52
2022-09-26T13:52:55.076Z,90.82
2022-09-26T13:55:08.373Z,90.19
2022-09-26T13:57:41.754Z,89.99
2022-09-26T13:59:57.079Z,93.94
2022-09-26T14:02:23.585Z,92.98
2022-09-26T14:04:36.410Z,94.26
2022-09-26T14:07:27.696Z,95.41
2022-09-26T14:09:48.788Z,95.57
2022-09-26T14:12:34.897Z,94.23
2022-09-26T14:14:49.477Z,93.55
2022-09-26T14:16:55.491Z,91.64
2022-09-26T14:19:11.883Z,89.15
2022-09-26T14:21:30.453Z,83.12
2022-09-26T14:23:46.864Z,83.92
2022-09-26T14:25:58.367Z,86.11
2022-09-26T14:28:19.620Z,87.49
2022-09-26T14:30:32.467Z,89.64
2022-09-26T14:32:40.464Z,87.48
2022-09-26T14:34:46.626Z,86.14
2022-09-26T14:36:52.447Z,87.90
2022-09-26T14:39:00.403Z,89.40
2022-09-26T14:41:05.847Z,86.24
2022-09-26T14:43:16.045Z,83.46
2022-09-26T14:45:26.278Z,81.18
2022-09-26T14:47:40.398Z,82.37
2022-09-26T14:49:45.951Z,81.79
2022-09-26T14:51:54.229Z,82.34
2022-09-26T14:54:05.815Z,83.99
2022-09-26T14:56:14.197Z,83.85
2022-09-26T14:58:20.345Z,84.69
2022-09-26T15:00:40.642Z,80.81
2022-09-26T15:02:46.696Z,82.18
2022-09-26T15:05:01.994Z,84.25
2022-09-26T15:07:15.294Z,84.37
2022-09-26T15:09:27.485Z,85.76
2022-09-26T15:11:42.510Z,84.92
2022-09-26T15:13:48.691Z,84.91
2022-09-26T15:16:12.436Z,84.67
2022-09-26T15:18:27.307Z,86.78
2022-09-26T15:20:36.634Z,84.13
2022-09-26T15:22:43.080Z,86.54
2022-09-26T15:24:56.221Z,87.68
2022-09-26T15:27:03.984Z,87.99
2022-09-26T15:29:10.024Z,86.98
2022-09-26T15:31:23.219Z,88.22
2022-09-26T15:33:28.322Z,88.99
2022-09-26T15:35:34.163Z,90.50
2022-09-26T15:37:39.634Z,90.10
2022-09-26T15:39:45.699Z,90.52
2022-09-26T15:42:08.203Z,91.24
2022-09-26T15:44:22.155Z,92.31
2022-09-26T15:46:27.669Z,94.22
2022-09-26T15:48:34.704Z,94.79
2022-09-26T15:50:44.969Z,95.37
2022-09-26T15:52:55.268Z,95.28
2022-09-26T15:55:00.445Z,95.58
2022-09-26T15:57:10.339Z,97.81
2022-09-26T15:59:20.869Z,98.15
2022-09-26T16:01:28.292Z,100.00
2022-09-26T16:03:42.428Z,97.60
2022-09-26T16:05:48.420Z,98.94
2022-09-26T16:07:55.308Z,98.44
2022-09-26T16:10:01.361Z,99.47
2022-09-26T16:12:15.151Z,99.11
2022-09-26T16:14:28.392Z,100.00
2022-09-26T16:16:37.719Z,100.00
2022-09-26T16:18:49.349Z,100.00
2022-09-26T16:21:18.490Z,100.00
2022-09-26T16:23:29.037Z,100.00
2022-09-26T16:25:36.379Z,100.00
2022-09-26T16:27:44.290Z,100.00
2022-09-26T16:29:53.464Z,100.00
2022-09-26T16:31:59.570Z,100.00
2022-09-26T16:34:06.977Z,100.00
2022-09-26T16:36:22.192Z,100.00
2022-09-26T16:38:30.015Z,100.00
2022-09-26T16:40:36.939Z,100.00
2022-09-26T16:42:46.409Z,100.00
2022-09-26T16:44:55.585Z,100.00
2022-09-26T16:47:02.577Z,100.00
2022-09-26T16:49:09.904Z,100.00
2022-09-26T16:51:17.109Z,100.00
2022-09-26T16:53:26.003Z,100.00
2022-09-26T16:55:30.980Z,100.00
2022-09-26T16:57:39.954Z,100.00
2022-09-26T16:59:49.830Z,100.00
2022-09-26T17:01:54.903Z,100.00
2022-09-26T17:04:02.217Z,100.00
2022-09-26T17:06:07.567Z,100.00
2022-09-26T17:08:13.853Z,100.00
2022-09-26T17:10:20.493Z,100.00
2022-09-26T17:12:25.541Z,100.00
2022-09-26T17:14:40.590Z,100.00
2022-09-26T17:16:50.656Z,100.00
2022-09-26T17:18:55.917Z,100.00
2022-09-26T17:21:01.790Z,100.00
2022-09-26T17:23:38.044Z,100.00
2022-09-26T17:25:40.873Z,100.00
2022-09-26T17:27:46.322Z,100.00
2022-09-26T17:29:53.248Z,100.00
2022-09-26T17:32:05.094Z,100.00
2022-09-26T17:34:14.736Z,100.00
2022-09-26T17:36:28.127Z,100.00
2022-09-26T17:38:38.593Z,100.00
2022-09-26T17:40:48.043Z,100.00
2022-09-26T17:42:55.443Z,100.00
2022-09-26T17:45:01.067Z,100.00
2022-09-26T17:47:09.360Z,100.00
2022-09-26T17:49:18.419Z,100.00
2022-09-26T17:51:24.056Z,100.00
2022-09-26T17:53:32.759Z,100.00
2022-09-26T17:55:37.968Z,100.00
2022-09-26T17:57:42.934Z,100.00
2022-09-26T17:59:48.805Z,100.00
2022-09-26T18:01:56.923Z,100.00
2022-09-26T18:04:12.650Z,100.00
2022-09-26T18:06:17.370Z,100.00
2022-09-26T18:08:28.492Z,100.00
2022-09-26T18:10:38.031Z,100.00
2022-09-26T18:12:43.024Z,100.00
2022-09-26T18:14:48.138Z,100.00
2022-09-26T18:16:52.951Z,100.00
2022-09-26T18:18:57.891Z,100.00
2022-09-26T18:21:05.783Z,100.00
2022-09-26T18:23:20.705Z,100.00
2022-09-26T18:25:28.229Z,100.00
2022-09-26T18:27:33.619Z,100.00
2022-09-26T18:29:41.753Z,100.00
2022-09-26T18:31:49.109Z,100.00
2022-09-26T18:33:54.822Z,100.00
2022-09-26T18:36:00.556Z,100.00
2022-09-26T18:38:08.495Z,100.00
2022-09-26T18:40:16.780Z,100.00
2022-09-26T18:42:24.651Z,100.00
2022-09-26T18:44:30.390Z,100.00
2022-09-26T18:46:37.788Z,100.00
2022-09-26T18:48:42.832Z,100.00
2022-09-26T18:50:48.011Z,100.00
2022-09-26T18:52:52.924Z,100.00
2022-09-26T18:55:12.727Z,100.00
2022-09-26T18:57:30.192Z,100.00
2022-09-26T18:59:35.136Z,100.00
2022-09-26T19:01:43.230Z,100.00
2022-09-26T19:03:51.100Z,100.00
2022-09-26T19:06:03.440Z,100.00
2022-09-26T19:08:08.506Z,100.00
2022-09-26T19:10:22.731Z,100.00
2022-09-26T19:12:27.858Z,100.00
2022-09-26T19:14:36.897Z,100.00
2022-09-26T19:16:41.921Z,100.00
2022-09-26T19:18:47.944Z,100.00
2022-09-26T19:20:52.969Z,100.00
2022-09-26T19:22:59.760Z,100.00
2022-09-26T19:25:05.311Z,100.00
2022-09-26T19:27:16.763Z,100.00
2022-09-26T19:29:30.155Z,100.00
2022-09-26T19:31:35.185Z,100.00
2022-09-26T19:33:43.035Z,100.00
2022-09-26T19:35:48.269Z,100.00
2022-09-26T19:37:53.600Z,100.00
2022-09-26T19:39:59.359Z,100.00
2022-09-26T19:42:04.822Z,100.00
2022-09-26T19:44:12.666Z,100.00
2022-09-26T19:46:25.163Z,100.00
2022-09-26T19:48:34.006Z,100.00
2022-09-26T19:50:43.766Z,100.00
2022-09-26T19:52:49.169Z,100.00
2022-09-26T19:54:54.348Z,100.00
2022-09-26T19:56:59.567Z,100.00
2022-09-26T19:59:04.404Z,100.00
2022-09-26T20:01:20.381Z,100.00
2022-09-26T20:03:31.093Z,100.00
2022-09-26T20:05:36.588Z,100.00
2022-09-26T20:07:41.573Z,100.00
2022-09-26T20:09:46.963Z,100.00
2022-09-26T20:11:51.864Z,100.00
2022-09-26T20:14:09.218Z,100.00
2022-09-26T20:16:17.024Z,100.00
2022-09-26T20:18:25.015Z,100.00
2022-09-26T20:20:32.179Z,100.00
2022-09-26T20:22:40.092Z,100.00
2022-09-26T20:24:45.792Z,100.00
2022-09-26T20:26:52.614Z,100.00
2022-09-26T20:28:57.719Z,100.00
2022-09-26T20:31:00.093Z,100.00
2022-09-26T20:33:08.869Z,100.00
2022-09-26T20:35:17.015Z,100.00
2022-09-26T20:37:23.800Z,100.00
2022-09-26T20:39:29.399Z,100.00
2022-09-26T20:41:37.656Z,100.00
2022-09-26T20:43:42.747Z,100.00
2022-09-26T20:45:48.484Z,100.00
2022-09-26T20:47:53.584Z,100.00
2022-09-26T20:50:03.638Z,100.00
2022-09-26T20:52:09.053Z,100.00
2022-09-26T20:54:26.909Z,100.00
2022-09-26T20:56:32.330Z,100.00
2022-09-26T20:58:37.297Z,100.00
2022-09-26T21:00:42.924Z,100.00
2022-09-26T21:02:50.376Z,100.00
2022-09-26T21:04:55.752Z,100.00
2022-09-26T21:07:03.266Z,100.00
2022-09-26T21:09:08.334Z,100.00
2022-09-26T21:11:15.908Z,100.00
2022-09-26T21:13:20.831Z,100.00
2022-09-26T21:15:26.922Z,100.00
2022-09-26T21:17:32.671Z,100.00
2022-09-26T21:19:37.600Z,100.00
2022-09-26T21:21:56.856Z,100.00
2022-09-26T21:24:25.194Z,100.00
2022-09-26T21:26:31.751Z,100.00
2022-09-26T21:28:36.713Z,100.00
2022-09-26T21:30:41.649Z,100.00
2022-09-26T21:32:49.399Z,100.00
2022-09-26T21:35:01.118Z,100.00
2022-09-26T21:37:06.152Z,100.00
2022-09-26T21:39:11.020Z,100.00
2022-09-26T21:41:18.762Z,100.00
2022-09-26T21:43:28.029Z,100.00
2022-09-26T21:45:32.896Z,100.00
2022-09-26T21:47:38.375Z,100.00
2022-09-26T21:49:43.537Z,100.00
2022-09-26T21:51:53.241Z,100.00
2022-09-26T21:54:01.840Z,100.00
2022-09-26T21:56:12.495Z,100.00
2022-09-26T21:58:24.361Z,100.00
2022-09-26T22:00:29.817Z,100.00
2022-09-26T22:02:34.844Z,100.00
2022-09-26T22:04:39.760Z,100.00
2022-09-26T22:06:45.024Z,100.00
2022-09-26T22:08:50.374Z,100.00
2022-09-26T22:10:56.016Z,100.00
2022-09-26T22:13:01.335Z,100.00
2022-09-26T22:15:10.281Z,100.00
2022-09-26T22:17:15.179Z,100.00
2022-09-26T22:19:20.339Z,100.00
2022-09-26T22:21:25.300Z,100.00
2022-09-26T22:23:30.312Z,100.00
2022-09-26T22:25:36.952Z,100.00
2022-09-26T22:27:44.786Z,100.00
2022-09-26T22:29:49.999Z,100.00
2022-09-26T22:31:57.244Z,100.00
2022-09-26T22:34:02.667Z,100.00
2022-09-26T22:36:08.303Z,100.00
2022-09-26T22:38:13.199Z,100.00
2022-09-26T22:40:18.301Z,100.00
2022-09-26T22:42:23.356Z,100.00
2022-09-26T22:44:28.285Z,100.00
2022-09-26T22:46:35.386Z,100.00
2022-09-26T22:48:45.495Z,100.00
2022-09-26T22:50:50.410Z,100.00
2022-09-26T22:52:55.711Z,100.00
2022-09-26T22:55:00.603Z,100.00
2022-09-26T22:57:05.645Z,100.00
2022-09-26T22:59:10.656Z,100.00
2022-09-26T23:01:18.590Z,100.00
2022-09-26T23:03:23.559Z,100.00
2022-09-26T23:05:31.156Z,100.00
2022-09-26T23:07:36.129Z,100.00
2022-09-26T23:09:41.399Z,100.00
2022-09-26T23:11:47.228Z,100.00
2022-09-26T23:13:54.668Z,100.00
2022-09-26T23:16:05.215Z,100.00
2022-09-26T23:18:10.173Z,100.00
2022-09-26T23:20:15.078Z,100.00
2022-09-26T23:22:25.363Z,100.00
2022-09-26T23:24:30.340Z,100.00
2022-09-26T23:26:35.289Z,100.00
2022-09-26T23:28:40.183Z,100.00
2022-09-26T23:30:45.739Z,100.00
2022-09-26T23:32:51.156Z,100.00
2022-09-26T23:34:56.114Z,100.00
2022-09-26T23:37:01.018Z,100.00
2022-09-26T23:39:08.834Z,100.00
2022-09-26T23:41:15.048Z,100.00
2022-09-26T23:43:20.433Z,100.00
2022-09-26T23:45:25.315Z,100.00
2022-09-26T23:47:30.267Z,100.00
2022-09-26T23:49:35.187Z,100.00
2022-09-26T23:51:40.117Z,100.00
2022-09-26T23:53:45.182Z,100.00
2022-09-26T23:55:53.186Z,100.00
2022-09-26T23:57:59.513Z,100.00
